Time;durP1;ratioP1;P1;durP2;ratioP2;P2;SDS_P1;SDS_P2;PMS_P1;PMS_P2;Temp;Humidity;BMP_temperature;BMP_pressure;BME280_temperature;BME280_humidity;BME280_pressure;Samples;Min_cycle;Max_cycle;Signal;HPM_P1;HPM_P2
2024/02/19 00:02:39;;;;;;;3.80;3.80;;;10.40;99.90;;;;;;10378117;28;20715;-78
2024/02/19 00:07:41;;;;;;;3.30;3.30;;;10.50;99.90;;;;;;10495158;22;20231;-79
2024/02/19 00:12:44;;;;;;;3.47;3.47;;;10.60;99.90;;;;;;10477337;28;20551;-78
2024/02/19 00:17:48;;;;;;;2.80;2.80;;;10.70;99.90;;;;;;10492268;28;20778;-78
2024/02/19 00:22:51;;;;;;;3.00;3.00;;;10.70;99.90;;;;;;10473958;28;20212;-79
2024/02/19 00:27:53;;;;;;;3.03;3.03;;;10.70;99.90;;;;;;10468111;28;20208;-79
2024/02/19 00:32:58;;;;;;;2.30;2.30;;;10.80;99.90;;;;;;10469741;28;20205;-79
2024/02/19 00:38:01;;;;;;;2.50;2.50;;;10.80;99.90;;;;;;10478629;28;20724;-79
2024/02/19 00:43:03;;;;;;;2.30;2.30;;;10.90;99.90;;;;;;10457431;28;20674;-79
2024/02/19 00:48:08;;;;;;;2.23;2.23;;;10.90;99.90;;;;;;10463708;28;20228;-79
2024/02/19 00:53:10;;;;;;;1.80;1.80;;;11.00;99.90;;;;;;10490244;28;20219;-79
2024/02/19 00:58:13;;;;;;;1.40;1.40;;;11.00;99.90;;;;;;10493530;28;20220;-79
2024/02/19 01:03:17;;;;;;;1.50;1.50;;;11.10;99.90;;;;;;10503961;28;20253;-79
2024/02/19 01:08:20;;;;;;;1.50;1.50;;;11.10;99.90;;;;;;10488514;28;20228;-79
2024/02/19 01:13:22;;;;;;;1.60;1.60;;;11.10;99.90;;;;;;10474991;28;20678;-79
2024/02/19 01:18:26;;;;;;;1.40;1.40;;;11.10;99.90;;;;;;10475405;28;20236;-80
2024/02/19 01:23:29;;;;;;;1.60;1.60;;;11.10;99.90;;;;;;10477846;28;20860;-79
2024/02/19 01:28:31;;;;;;;1.60;1.60;;;11.10;99.90;;;;;;10484569;28;20286;-79
2024/02/19 01:33:36;;;;;;;1.50;1.50;;;11.20;99.90;;;;;;10506017;28;20216;-80
2024/02/19 01:38:38;;;;;;;1.47;1.47;;;11.20;99.90;;;;;;10516739;28;20274;-81
2024/02/19 01:43:41;;;;;;;1.50;1.50;;;11.20;99.90;;;;;;10507380;28;20204;-80
2024/02/19 01:48:45;;;;;;;1.67;1.67;;;11.20;99.90;;;;;;10491188;28;20204;-80
2024/02/19 01:53:49;;;;;;;1.40;1.40;;;11.30;99.90;;;;;;10491163;28;20247;-80
2024/02/19 01:58:53;;;;;;;1.30;1.30;;;11.30;99.90;;;;;;10498785;28;20231;-80
2024/02/19 02:03:57;;;;;;;1.40;1.40;;;11.30;99.90;;;;;;10487569;28;20201;-80
2024/02/19 02:09:00;;;;;;;1.50;1.50;;;11.20;99.90;;;;;;10493008;28;20200;-80
2024/02/19 02:14:03;;;;;;;1.40;1.40;;;11.20;99.90;;;;;;10488448;28;20200;-78
2024/02/19 02:19:07;;;;;;;1.30;1.30;;;11.20;99.90;;;;;;10493255;28;20757;-78
2024/02/19 02:24:09;;;;;;;1.20;1.20;;;11.20;99.90;;;;;;10480755;28;20228;-77
2024/02/19 02:29:13;;;;;;;1.30;1.30;;;11.30;99.90;;;;;;10467062;28;20255;-78
2024/02/19 02:34:15;;;;;;;1.40;1.40;;;11.30;99.90;;;;;;10491488;28;20224;-78
2024/02/19 02:39:18;;;;;;;1.40;1.40;;;11.20;99.90;;;;;;10475345;28;20652;-80
2024/02/19 02:44:22;;;;;;;1.50;1.50;;;11.10;99.90;;;;;;10489897;28;20229;-79
2024/02/19 02:49:25;;;;;;;1.63;1.63;;;11.10;99.90;;;;;;10489404;28;20180;-79
2024/02/19 02:54:27;;;;;;;1.70;1.70;;;10.90;99.90;;;;;;10498630;28;20641;-79
2024/02/19 02:59:31;;;;;;;1.90;1.90;;;10.80;99.90;;;;;;10503206;28;20220;-79
2024/02/19 03:04:33;;;;;;;1.73;1.73;;;10.80;99.90;;;;;;10498530;28;20236;-79
2024/02/19 03:09:36;;;;;;;2.00;2.00;;;10.80;99.90;;;;;;10476553;28;20213;-79
2024/02/19 03:14:41;;;;;;;2.33;2.33;;;10.80;99.90;;;;;;10480357;28;20220;-79
2024/02/19 03:19:44;;;;;;;2.10;2.10;;;10.80;99.90;;;;;;10508378;28;20561;-80
2024/02/19 03:24:47;;;;;;;2.30;2.30;;;10.70;99.90;;;;;;10507960;28;20220;-79
2024/02/19 03:29:51;;;;;;;2.40;2.40;;;10.80;99.90;;;;;;10505883;28;20606;-79
2024/02/19 03:34:53;;;;;;;2.60;2.60;;;10.80;99.90;;;;;;10505824;28;20224;-79
2024/02/19 03:39:55;;;;;;;3.10;3.10;;;10.80;99.90;;;;;;10489088;28;20274;-79
2024/02/19 03:44:59;;;;;;;3.20;3.20;;;10.80;99.90;;;;;;10495503;28;20212;-79
2024/02/19 03:50:02;;;;;;;3.53;3.53;;;10.70;99.90;;;;;;10495991;28;20205;-79
2024/02/19 03:55:05;;;;;;;3.80;3.80;;;10.70;99.90;;;;;;10477720;28;20273;-78
2024/02/19 04:00:12;;;;;;;3.30;3.30;;;10.70;99.90;;;;;;10488100;28;20220;-79
2024/02/19 04:05:15;;;;;;;3.60;3.60;;;10.80;99.90;;;;;;10481630;28;20673;-79
2024/02/19 04:10:17;;;;;;;4.30;4.30;;;10.80;99.90;;;;;;10492792;28;20189;-79
2024/02/19 04:15:21;;;;;;;4.00;4.00;;;10.80;99.90;;;;;;10469384;28;20533;-79
2024/02/19 04:20:24;;;;;;;4.33;4.33;;;10.80;99.90;;;;;;10496697;28;20217;-79
2024/02/19 04:25:26;;;;;;;4.70;4.70;;;10.90;99.90;;;;;;10488075;28;20759;-79
2024/02/19 04:30:30;;;;;;;4.50;4.50;;;10.80;99.90;;;;;;10476486;28;20607;-79
2024/02/19 04:35:33;;;;;;;3.83;3.83;;;10.80;99.90;;;;;;10467280;28;20772;-79
2024/02/19 04:40:35;;;;;;;4.30;4.30;;;10.80;99.90;;;;;;10482383;28;20287;-79
2024/02/19 04:45:39;;;;;;;4.20;4.20;;;10.80;99.90;;;;;;10489780;28;20227;-79
2024/02/19 04:50:42;;;;;;;4.50;4.50;;;10.80;99.90;;;;;;10483836;28;20185;-79
2024/02/19 04:55:44;;;;;;;3.50;3.50;;;10.80;99.90;;;;;;10499148;28;20220;-79
2024/02/19 05:00:48;;;;;;;3.50;3.50;;;10.70;99.90;;;;;;10504402;28;20212;-79
2024/02/19 05:05:51;;;;;;;3.67;3.67;;;10.70;99.90;;;;;;10491889;28;20640;-79
2024/02/19 05:10:53;;;;;;;3.87;3.87;;;10.70;99.90;;;;;;10491992;28;20278;-79
2024/02/19 05:15:57;;;;;;;3.47;3.47;;;10.70;99.90;;;;;;10467121;28;20217;-79
2024/02/19 05:21:00;;;;;;;3.20;3.20;;;10.60;99.90;;;;;;10475485;28;20216;-79
2024/02/19 05:26:04;;;;;;;3.03;3.03;;;10.70;99.90;;;;;;10461545;28;20771;-79
2024/02/19 05:31:08;;;;;;;2.90;2.90;;;10.70;99.90;;;;;;10471869;28;20205;-79
2024/02/19 05:36:10;;;;;;;2.67;2.67;;;10.70;99.90;;;;;;10486808;28;20232;-79
2024/02/19 05:41:13;;;;;;;2.60;2.60;;;10.70;99.90;;;;;;10484424;28;20200;-79
2024/02/19 05:46:17;;;;;;;1.93;1.93;;;10.80;99.90;;;;;;10498102;28;20239;-79
2024/02/19 05:51:20;;;;;;;1.80;1.80;;;10.80;99.90;;;;;;10464357;28;20208;-79
2024/02/19 05:56:22;;;;;;;1.00;1.00;;;10.90;99.90;;;;;;10464902;28;20714;-79
2024/02/19 06:01:26;;;;;;;1.60;1.60;;;10.90;99.90;;;;;;10482481;28;20202;-78
2024/02/19 06:06:29;;;;;;;1.60;1.60;;;10.90;99.90;;;;;;10482756;28;20281;-78
2024/02/19 06:11:31;;;;;;;1.30;1.30;;;10.90;99.90;;;;;;10476209;28;20391;-78
2024/02/19 06:16:35;;;;;;;1.70;1.70;;;10.90;99.90;;;;;;10477203;28;20220;-77
2024/02/19 06:21:38;;;;;;;1.70;1.70;;;10.90;99.90;;;;;;10496524;28;20200;-77
2024/02/19 06:26:40;;;;;;;1.10;1.10;;;11.00;99.90;;;;;;10479285;28;20212;-77
2024/02/19 06:31:47;;;;;;;1.20;1.20;;;11.00;99.90;;;;;;10496728;28;20223;-77
2024/02/19 06:36:50;;;;;;;1.00;1.00;;;11.00;99.90;;;;;;10476655;28;20245;-78
2024/02/19 06:41:52;;;;;;;1.30;1.30;;;11.00;99.90;;;;;;10499938;28;20796;-78
2024/02/19 06:46:56;;;;;;;1.30;1.30;;;11.10;99.90;;;;;;10484831;28;20225;-77
2024/02/19 06:51:59;;;;;;;1.20;1.20;;;11.10;99.90;;;;;;10482741;28;20196;-78
2024/02/19 06:57:02;;;;;;;1.30;1.30;;;11.10;99.90;;;;;;10497046;28;20710;-78
2024/02/19 07:02:06;;;;;;;1.10;1.10;;;11.10;99.90;;;;;;10487936;28;20683;-77
2024/02/19 07:07:09;;;;;;;0.87;0.87;;;11.10;99.90;;;;;;10464417;28;20224;-78
2024/02/19 07:12:12;;;;;;;0.83;0.83;;;11.10;99.90;;;;;;10486826;28;20262;-77
2024/02/19 07:17:16;;;;;;;0.93;0.93;;;11.10;99.90;;;;;;10457232;28;20221;-77
2024/02/19 07:22:18;;;;;;;0.90;0.90;;;11.20;99.90;;;;;;10464102;28;20284;-77
2024/02/19 07:27:21;;;;;;;0.40;0.40;;;11.20;99.90;;;;;;10462308;28;20267;-78
2024/02/19 07:32:25;;;;;;;0.80;0.80;;;11.20;99.90;;;;;;10462116;28;20205;-77
2024/02/19 07:37:27;;;;;;;0.70;0.70;;;11.20;99.90;;;;;;10466428;28;20224;-77
2024/02/19 07:42:30;;;;;;;0.80;0.80;;;11.20;99.90;;;;;;10475024;28;20200;-78
2024/02/19 07:47:34;;;;;;;0.70;0.70;;;11.30;99.90;;;;;;10460823;28;20220;-77
2024/02/19 07:52:37;;;;;;;0.60;0.60;;;11.30;99.90;;;;;;10460555;28;20267;-77
2024/02/19 07:57:40;;;;;;;0.60;0.60;;;11.40;99.90;;;;;;10457868;28;20224;-77
2024/02/19 08:02:44;;;;;;;0.70;0.70;;;11.40;99.90;;;;;;10457975;28;20655;-78
2024/02/19 08:07:46;;;;;;;0.70;0.70;;;11.50;99.90;;;;;;10458660;28;20260;-77
2024/02/19 08:12:49;;;;;;;0.70;0.70;;;11.50;99.90;;;;;;10465388;28;20204;-78
2024/02/19 08:17:53;;;;;;;0.60;0.60;;;11.50;99.90;;;;;;10471252;28;20294;-78
2024/02/19 08:22:55;;;;;;;0.70;0.70;;;11.50;99.90;;;;;;10495788;28;20197;-78
2024/02/19 08:27:58;;;;;;;0.40;0.40;;;11.50;99.90;;;;;;10462817;28;20246;-77
2024/02/19 08:33:02;;;;;;;0.50;0.50;;;11.50;99.90;;;;;;10493905;28;20570;-77
2024/02/19 08:38:06;;;;;;;0.40;0.40;;;11.50;99.90;;;;;;10469023;28;20233;-77
2024/02/19 08:43:11;;;;;;;0.50;0.50;;;11.50;99.90;;;;;;10464258;28;20242;-77
2024/02/19 08:48:15;;;;;;;0.30;0.30;;;11.50;99.90;;;;;;10477295;28;20213;-77
2024/02/19 08:53:17;;;;;;;0.40;0.40;;;11.60;99.90;;;;;;10500193;28;20204;-80
2024/02/19 08:58:20;;;;;;;0.50;0.50;;;11.60;99.90;;;;;;10503879;28;20239;-80
2024/02/19 09:03:24;;;;;;;0.30;0.30;;;11.60;99.90;;;;;;10501002;28;20192;-80
2024/02/19 09:08:27;;;;;;;0.40;0.40;;;11.70;99.90;;;;;;10497256;28;20217;-80
2024/02/19 09:13:29;;;;;;;0.37;0.37;;;11.70;99.90;;;;;;10465586;28;20205;-81
2024/02/19 09:18:33;;;;;;;0.50;0.50;;;11.80;99.90;;;;;;10497092;28;20225;-81
2024/02/19 09:23:36;;;;;;;0.50;0.50;;;11.90;99.90;;;;;;10461648;28;20926;-81
2024/02/19 09:28:39;;;;;;;0.50;0.50;;;11.90;99.90;;;;;;10490048;28;20213;-81
2024/02/19 09:33:45;;;;;;;0.43;0.43;;;12.00;99.90;;;;;;10458059;28;20239;-80
2024/02/19 09:38:48;;;;;;;0.40;0.40;;;12.00;99.90;;;;;;10478186;28;20220;-81
2024/02/19 09:43:51;;;;;;;0.40;0.40;;;12.10;99.90;;;;;;10476181;28;20212;-81
2024/02/19 09:48:57;;;;;;;0.50;0.50;;;12.10;99.90;;;;;;10507877;28;20204;-81
2024/02/19 09:54:00;;;;;;;0.50;0.50;;;12.10;99.90;;;;;;10499333;28;20603;-80
2024/02/19 09:59:04;;;;;;;0.50;0.50;;;12.20;99.90;;;;;;10469770;28;20231;-81
2024/02/19 10:04:10;;;;;;;0.57;0.57;;;12.30;99.90;;;;;;10468415;28;20205;-81
2024/02/19 10:09:14;;;;;;;0.50;0.50;;;12.30;99.90;;;;;;10487122;28;20232;-80
2024/02/19 10:14:16;;;;;;;0.40;0.40;;;12.40;99.90;;;;;;10466588;28;20220;-81
2024/02/19 10:19:20;;;;;;;0.50;0.50;;;12.40;99.90;;;;;;10471022;28;20566;-81
2024/02/19 10:24:23;;;;;;;0.33;0.33;;;12.50;99.90;;;;;;10468267;28;20232;-81
2024/02/19 10:29:26;;;;;;;0.43;0.43;;;12.60;99.90;;;;;;10474865;28;20214;-81
2024/02/19 10:34:30;;;;;;;0.40;0.40;;;12.50;99.90;;;;;;10473029;28;20588;-81
2024/02/19 10:39:33;;;;;;;0.30;0.30;;;12.40;99.90;;;;;;10494442;28;20232;-81
2024/02/19 10:44:36;;;;;;;0.30;0.30;;;12.40;99.90;;;;;;10470071;28;20225;-81
2024/02/19 10:49:49;;;;;;;0.40;0.40;;;12.30;99.90;;;;;;10467865;28;20197;-81
2024/02/19 10:54:55;;;;;;;0.50;0.50;;;12.30;99.90;;;;;;10468229;28;20800;-81
2024/02/19 11:00:10;;;;;;;0.40;0.40;;;12.30;99.90;;;;;;10476076;28;20659;-81
2024/02/19 11:05:15;;;;;;;0.50;0.50;;;12.50;99.90;;;;;;10448315;28;20345;-81
2024/02/19 11:10:17;;;;;;;0.47;0.47;;;12.60;99.90;;;;;;10492102;28;20592;-81
2024/02/19 11:15:21;;;;;;;0.30;0.30;;;12.80;99.90;;;;;;10481104;28;20247;-81
2024/02/19 11:20:28;;;;;;;0.40;0.40;;;12.80;99.90;;;;;;10446764;28;20220;-81
2024/02/19 11:25:31;;;;;;;0.40;0.40;;;12.80;99.90;;;;;;10466791;28;20224;-81
2024/02/19 11:30:33;;;;;;;0.30;0.30;;;12.80;99.70;;;;;;10470645;28;20204;-80
2024/02/19 11:35:37;;;;;;;0.40;0.40;;;12.70;99.90;;;;;;10452362;28;20628;-80
2024/02/19 11:40:40;;;;;;;0.40;0.40;;;12.70;99.90;;;;;;10501643;28;20216;-80
2024/02/19 11:45:43;;;;;;;0.37;0.37;;;12.70;99.90;;;;;;10469441;28;20220;-80
2024/02/19 11:50:47;;;;;;;0.40;0.40;;;12.90;99.90;;;;;;10467595;28;20207;-80
2024/02/19 11:55:59;;;;;;;0.40;0.40;;;13.00;99.90;;;;;;10449231;28;20281;-80
2024/02/19 12:01:02;;;;;;;0.40;0.40;;;13.10;99.70;;;;;;10499516;28;20208;-80
2024/02/19 12:06:06;;;;;;;0.40;0.40;;;13.10;99.40;;;;;;10502830;28;20220;-80
2024/02/19 12:11:09;;;;;;;0.40;0.40;;;13.20;99.20;;;;;;10501710;28;20193;-80
2024/02/19 12:16:11;;;;;;;0.50;0.50;;;13.30;99.50;;;;;;10481783;28;20241;-80
2024/02/19 12:21:17;;;;;;;0.30;0.30;;;13.40;99.50;;;;;;10473977;28;20227;-80
2024/02/19 12:26:19;;;;;;;0.40;0.40;;;13.40;97.70;;;;;;10474540;28;20224;-80
2024/02/19 12:31:22;;;;;;;0.30;0.30;;;13.30;98.20;;;;;;10470007;28;20197;-80
2024/02/19 12:36:26;;;;;;;0.40;0.40;;;13.20;98.00;;;;;;10469230;28;20232;-80
2024/02/19 12:41:29;;;;;;;0.40;0.40;;;13.10;97.80;;;;;;10502500;28;20221;-80
2024/02/19 12:46:32;;;;;;;0.40;0.40;;;13.00;97.60;;;;;;10464467;28;20217;-80
2024/02/19 12:51:37;;;;;;;0.30;0.30;;;12.90;98.40;;;;;;10466176;28;20270;-80
2024/02/19 12:56:39;;;;;;;0.50;0.50;;;12.90;97.50;;;;;;10464232;28;20232;-81
2024/02/19 13:01:42;;;;;;;0.40;0.40;;;13.00;98.20;;;;;;10464156;28;20216;-81
2024/02/19 13:06:46;;;;;;;0.40;0.40;;;13.20;98.70;;;;;;10463949;28;20287;-81
2024/02/19 13:11:49;;;;;;;0.40;0.40;;;13.30;98.20;;;;;;10464197;28;20205;-81
2024/02/19 13:16:52;;;;;;;0.47;0.47;;;13.40;98.20;;;;;;10468098;28;20212;-80
2024/02/19 13:21:55;;;;;;;0.30;0.30;;;13.40;97.00;;;;;;10468512;28;20644;-80
2024/02/19 13:26:58;;;;;;;0.40;0.40;;;13.40;95.70;;;;;;10500477;28;20220;-80
2024/02/19 13:32:01;;;;;;;0.37;0.37;;;13.40;95.90;;;;;;10502267;28;20258;-80
2024/02/19 13:37:06;;;;;;;0.30;0.30;;;13.40;97.30;;;;;;10479205;28;20227;-81
2024/02/19 13:42:09;;;;;;;0.50;0.50;;;13.40;97.70;;;;;;10506103;28;20228;-81
2024/02/19 13:47:12;;;;;;;0.30;0.30;;;13.40;97.50;;;;;;10473117;28;20278;-80
2024/02/19 13:52:16;;;;;;;0.30;0.30;;;13.40;97.20;;;;;;10471967;28;20216;-81
2024/02/19 13:57:19;;;;;;;0.40;0.40;;;13.40;97.50;;;;;;10454180;28;20225;-80
2024/02/19 14:02:21;;;;;;;0.30;0.30;;;13.40;97.60;;;;;;10473819;28;20250;-81
2024/02/19 14:07:25;;;;;;;0.30;0.30;;;13.40;97.10;;;;;;10484356;28;20776;-81
2024/02/19 14:12:28;;;;;;;0.20;0.20;;;13.40;96.80;;;;;;10478376;28;20204;-80
2024/02/19 14:17:30;;;;;;;0.40;0.40;;;13.30;96.90;;;;;;10470186;28;20649;-81
2024/02/19 14:22:35;;;;;;;0.40;0.40;;;13.30;96.80;;;;;;10468146;28;20217;-81
2024/02/19 14:27:38;;;;;;;0.50;0.50;;;13.10;96.80;;;;;;10465376;28;20221;-81
2024/02/19 14:32:42;;;;;;;0.50;0.50;;;13.00;97.40;;;;;;10474182;28;20182;-80
2024/02/19 14:37:47;;;;;;;0.60;0.60;;;13.10;96.90;;;;;;10467489;28;20626;-81
2024/02/19 14:42:51;;;;;;;0.50;0.50;;;13.10;97.20;;;;;;10474268;28;20657;-81
2024/02/19 14:47:54;;;;;;;0.53;0.53;;;13.20;96.80;;;;;;10454654;28;20602;-81
2024/02/19 14:52:58;;;;;;;0.53;0.53;;;13.20;96.20;;;;;;10479759;28;20204;-81
2024/02/19 14:58:00;;;;;;;0.40;0.40;;;13.20;96.70;;;;;;10507648;28;20216;-80
2024/02/19 15:03:04;;;;;;;0.43;0.43;;;13.20;96.60;;;;;;10472432;28;20213;-80
2024/02/19 15:08:15;;;;;;;0.50;0.50;;;13.10;96.80;;;;;;10481467;28;20232;-81
2024/02/19 15:13:18;;;;;;;0.70;0.70;;;13.00;96.50;;;;;;10470421;28;20736;-81
2024/02/19 15:18:22;;;;;;;0.50;0.50;;;12.90;96.60;;;;;;10466797;28;20244;-81
2024/02/19 15:23:26;;;;;;;0.60;0.60;;;12.90;96.80;;;;;;10463053;28;20213;-80
2024/02/19 15:28:28;;;;;;;0.60;0.60;;;12.80;97.30;;;;;;10462352;28;20239;-81
2024/02/19 15:33:31;;;;;;;0.63;0.63;;;12.80;97.30;;;;;;10491349;28;20193;-81
2024/02/19 15:38:35;;;;;;;0.50;0.50;;;12.80;98.10;;;;;;10489458;28;20220;-81
2024/02/19 15:43:37;;;;;;;0.60;0.60;;;12.70;97.60;;;;;;10455191;28;20695;-81
2024/02/19 15:48:40;;;;;;;0.53;0.53;;;12.70;97.70;;;;;;10449063;28;20229;-81
2024/02/19 15:53:44;;;;;;;0.60;0.60;;;12.60;97.30;;;;;;10455951;28;20197;-81
2024/02/19 15:58:47;;;;;;;0.50;0.50;;;12.60;97.30;;;;;;10472811;28;20213;-81
2024/02/19 16:03:52;;;;;;;0.43;0.43;;;12.60;97.60;;;;;;10463318;28;20843;-81
2024/02/19 16:08:56;;;;;;;0.50;0.50;;;12.60;97.90;;;;;;10480558;28;20201;-81
2024/02/19 16:13:59;;;;;;;0.60;0.60;;;12.60;97.60;;;;;;10468521;28;20209;-81
2024/02/19 16:19:02;;;;;;;0.40;0.40;;;12.60;97.80;;;;;;10463216;28;20635;-81
2024/02/19 16:24:09;;;;;;;0.53;0.53;;;12.60;96.90;;;;;;10443362;28;20251;-80
2024/02/19 16:29:13;;;;;;;0.50;0.50;;;12.60;97.20;;;;;;10459905;28;20247;-80
2024/02/19 16:34:15;;;;;;;0.40;0.40;;;12.60;97.20;;;;;;10469675;28;20254;-81
2024/02/19 16:39:19;;;;;;;0.40;0.40;;;12.50;97.20;;;;;;10491583;28;20198;-81
2024/02/19 16:44:22;;;;;;;0.50;0.50;;;12.50;97.60;;;;;;10501441;28;20224;-81
2024/02/19 16:49:24;;;;;;;0.50;0.50;;;12.40;97.20;;;;;;10467304;28;20204;-81
2024/02/19 16:54:28;;;;;;;0.60;0.60;;;12.40;98.20;;;;;;10463073;28;20224;-81
2024/02/19 16:59:30;;;;;;;0.20;0.20;;;12.30;99.10;;;;;;10464535;28;20213;-81
2024/02/19 17:04:33;;;;;;;0.60;0.60;;;12.20;99.90;;;;;;10477077;28;20231;-81
2024/02/19 17:09:37;;;;;;;0.50;0.50;;;12.10;99.90;;;;;;10488699;28;20208;-80
2024/02/19 17:14:42;;;;;;;0.60;0.60;;;12.10;99.90;;;;;;10481671;28;20558;-81
2024/02/19 17:19:45;;;;;;;0.70;0.70;;;12.10;99.90;;;;;;10470811;28;20690;-77
2024/02/19 17:24:48;;;;;;;0.53;0.53;;;12.00;99.90;;;;;;10459923;28;20625;-78
2024/02/19 17:29:51;;;;;;;0.23;0.23;;;11.80;99.90;;;;;;10481804;28;20201;-78
2024/02/19 17:34:53;;;;;;;0.70;0.70;;;11.70;99.90;;;;;;10490953;28;20216;-77
2024/02/19 17:39:57;;;;;;;0.60;0.60;;;11.60;99.90;;;;;;10489575;28;20220;-78
2024/02/19 17:44:59;;;;;;;0.60;0.60;;;11.60;99.90;;;;;;10487507;28;20209;-77
2024/02/19 17:50:03;;;;;;;0.50;0.50;;;11.60;99.90;;;;;;10491374;28;20185;-77
2024/02/19 17:55:09;;;;;;;0.70;0.70;;;11.60;99.90;;;;;;10488252;28;20750;-77
2024/02/19 18:00:12;;;;;;;0.70;0.70;;;11.50;99.90;;;;;;10492943;28;20219;-78
2024/02/19 18:05:18;;;;;;;0.63;0.63;;;11.50;99.90;;;;;;10493527;28;20224;-78
2024/02/19 18:10:21;;;;;;;0.50;0.50;;;11.50;99.90;;;;;;10486593;28;20242;-77
2024/02/19 18:15:24;;;;;;;0.60;0.60;;;11.50;99.90;;;;;;10493141;28;20220;-77
2024/02/19 18:20:26;;;;;;;0.80;0.80;;;11.50;99.90;;;;;;10495388;28;20220;-78
2024/02/19 18:25:30;;;;;;;0.73;0.73;;;11.60;99.90;;;;;;10494060;28;20716;-78
2024/02/19 18:30:32;;;;;;;0.60;0.60;;;11.60;99.90;;;;;;10493559;28;20681;-76
2024/02/19 18:35:38;;;;;;;0.80;0.80;;;11.60;99.90;;;;;;10491725;28;20212;-77
2024/02/19 18:40:43;;;;;;;0.90;0.90;;;11.70;99.90;;;;;;10476356;28;20239;-77
2024/02/19 18:45:45;;;;;;;0.60;0.60;;;11.60;99.90;;;;;;10491409;28;20282;-77
2024/02/19 18:50:48;;;;;;;0.63;0.63;;;11.70;99.90;;;;;;10492477;28;20181;-77
2024/02/19 18:55:58;;;;;;;0.80;0.80;;;11.70;99.90;;;;;;10492109;28;20282;-77
2024/02/19 19:01:02;;;;;;;0.70;0.70;;;11.70;99.90;;;;;;10491276;28;20270;-77
2024/02/19 19:06:05;;;;;;;0.60;0.60;;;11.70;99.90;;;;;;10490383;28;20224;-77
2024/02/19 19:11:08;;;;;;;0.60;0.60;;;11.70;99.90;;;;;;10490202;28;20201;-77
2024/02/19 19:16:11;;;;;;;0.60;0.60;;;11.70;99.90;;;;;;10489935;28;20217;-77
2024/02/19 19:21:13;;;;;;;0.50;0.50;;;11.70;99.90;;;;;;10496030;28;20221;-80
2024/02/19 19:26:17;;;;;;;0.67;0.67;;;11.70;99.90;;;;;;10497893;28;20564;-79
2024/02/19 19:31:19;;;;;;;0.60;0.60;;;11.60;99.90;;;;;;10500948;28;20246;-81
2024/02/19 19:36:22;;;;;;;0.60;0.60;;;11.60;99.90;;;;;;10499313;28;20208;-80
2024/02/19 19:41:26;;;;;;;0.60;0.60;;;11.60;99.90;;;;;;10499051;28;20235;-80
2024/02/19 19:46:28;;;;;;;0.60;0.60;;;11.50;99.90;;;;;;10491696;28;20277;-80
2024/02/19 19:51:30;;;;;;;0.60;0.60;;;11.50;99.90;;;;;;10499451;28;20193;-80
2024/02/19 19:56:37;;;;;;;0.60;0.60;;;11.50;99.90;;;;;;10497760;28;20216;-80
2024/02/19 20:01:40;;;;;;;0.60;0.60;;;11.50;99.90;;;;;;10500344;28;20259;-81
2024/02/19 20:06:42;;;;;;;0.50;0.50;;;11.50;99.90;;;;;;10498298;28;20224;-80
2024/02/19 20:11:46;;;;;;;0.40;0.40;;;11.50;99.90;;;;;;10496736;28;20192;-80
2024/02/19 20:16:48;;;;;;;0.67;0.67;;;11.60;99.90;;;;;;10495739;28;20225;-79
2024/02/19 20:21:51;;;;;;;0.80;0.80;;;11.60;99.90;;;;;;10496302;28;20223;-80
2024/02/19 20:26:59;;;;;;;0.60;0.60;;;11.60;99.90;;;;;;10494380;28;20290;-81
2024/02/19 20:32:04;;;;;;;0.60;0.60;;;11.60;99.90;;;;;;10478794;28;20246;-79
2024/02/19 20:37:06;;;;;;;0.90;0.90;;;11.60;99.90;;;;;;10496207;28;20298;-80
2024/02/19 20:42:11;;;;;;;0.50;0.50;;;11.50;99.90;;;;;;10495924;28;20224;-80
2024/02/19 20:47:14;;;;;;;1.23;1.23;;;11.40;99.90;;;;;;10491120;28;20231;-80
2024/02/19 20:52:16;;;;;;;1.20;1.20;;;11.20;99.90;;;;;;10494684;28;20180;-81
2024/02/19 20:57:20;;;;;;;1.30;1.30;;;11.00;99.90;;;;;;10480444;28;20254;-79
2024/02/19 21:02:22;;;;;;;1.80;1.80;;;10.90;99.90;;;;;;10480115;28;20213;-80
2024/02/19 21:07:25;;;;;;;1.90;1.90;;;10.70;99.90;;;;;;10493486;28;20699;-79
2024/02/19 21:12:28;;;;;;;2.40;2.40;;;10.60;99.90;;;;;;10487765;28;20188;-80
2024/02/19 21:17:31;;;;;;;2.50;2.50;;;10.50;99.90;;;;;;10478616;28;20939;-80
2024/02/19 21:22:33;;;;;;;2.80;2.80;;;10.50;99.90;;;;;;10477964;28;20201;-79
2024/02/19 21:27:37;;;;;;;2.80;2.80;;;10.50;99.90;;;;;;10488589;28;20220;-79
2024/02/19 21:32:39;;;;;;;2.60;2.60;;;10.50;99.90;;;;;;10472258;28;20189;-80
2024/02/19 21:37:42;;;;;;;2.10;2.10;;;10.50;99.90;;;;;;10485414;28;20218;-80
2024/02/19 21:42:46;;;;;;;2.43;2.43;;;10.50;99.90;;;;;;10497021;28;20289;-78
2024/02/19 21:47:48;;;;;;;2.00;2.00;;;10.40;99.90;;;;;;10497048;28;20273;-80
2024/02/19 21:52:50;;;;;;;2.60;2.60;;;10.40;99.90;;;;;;10504907;28;20204;-80
2024/02/19 21:57:54;;;;;;;1.80;1.80;;;10.40;99.90;;;;;;10505205;28;20224;-80
2024/02/19 22:02:57;;;;;;;2.03;2.03;;;10.40;99.90;;;;;;10506107;28;20216;-80
2024/02/19 22:08:00;;;;;;;2.30;2.30;;;10.40;99.90;;;;;;10505047;28;20220;-80
2024/02/19 22:13:04;;;;;;;2.27;2.27;;;10.40;99.90;;;;;;10511318;28;20196;-79
2024/02/19 22:18:06;;;;;;;2.10;2.10;;;10.40;99.90;;;;;;10502939;28;20677;-80
2024/02/19 22:23:08;;;;;;;1.80;1.80;;;10.40;99.90;;;;;;10504414;28;20274;-79
2024/02/19 22:28:12;;;;;;;1.70;1.70;;;10.50;99.90;;;;;;10504056;28;20262;-80
2024/02/19 22:33:14;;;;;;;1.67;1.67;;;10.60;99.90;;;;;;10504357;28;20204;-80
2024/02/19 22:38:17;;;;;;;2.07;2.07;;;10.60;99.90;;;;;;10502751;28;20702;-80
2024/02/19 22:43:20;;;;;;;1.90;1.90;;;10.60;99.90;;;;;;10505425;28;20899;-80
2024/02/19 22:48:23;;;;;;;2.00;2.00;;;10.70;99.90;;;;;;10505450;28;20220;-80
2024/02/19 22:53:25;;;;;;;1.60;1.60;;;10.60;99.90;;;;;;10504065;28;20656;-80
2024/02/19 22:58:29;;;;;;;1.50;1.50;;;10.60;99.90;;;;;;10504727;28;20220;-80
2024/02/19 23:03:32;;;;;;;1.70;1.70;;;10.60;99.90;;;;;;10499169;28;20660;-80
2024/02/19 23:08:34;;;;;;;1.30;1.30;;;10.60;99.90;;;;;;10504446;28;20224;-79
2024/02/19 23:13:38;;;;;;;1.37;1.37;;;10.60;99.90;;;;;;10504112;28;20246;-80
2024/02/19 23:18:40;;;;;;;1.70;1.70;;;10.60;99.90;;;;;;10505234;28;20209;-80
2024/02/19 23:23:43;;;;;;;1.43;1.43;;;10.50;99.90;;;;;;10504221;28;20239;-80
2024/02/19 23:28:47;;;;;;;1.30;1.30;;;10.50;99.90;;;;;;10502733;28;20254;-80
2024/02/19 23:33:49;;;;;;;1.30;1.30;;;10.40;99.90;;;;;;10504747;28;20196;-80
2024/02/19 23:38:52;;;;;;;1.43;1.43;;;10.30;99.90;;;;;;10504115;28;20212;-80
2024/02/19 23:43:56;;;;;;;1.50;1.50;;;10.30;99.90;;;;;;10503232;28;20674;-79
2024/02/19 23:48:58;;;;;;;1.30;1.30;;;10.30;99.90;;;;;;10504422;28;20204;-80
2024/02/19 23:54:02;;;;;;;1.50;1.50;;;10.30;99.90;;;;;;10500245;28;20192;-79
2024/02/19 23:59:07;;;;;;;1.50;1.50;;;10.30;99.90;;;;;;10503379;28;20197;-80
